Weather observations for the past three days for
Lincoln, Lincoln Municipal Airport
Metric (Imperial)
Date Time (cdt) Wind (kph) Vis. (km) Weather Sky Cond. Temperature (ºC) Relative Humidity Wind Chill (°C) Heat Index (°C) Pressure Precipitation (cm)
Air Dwpt 6 hour altimeter (cm) sea level (mb) 1 hr 3 hr 6 hr
Max. Min.
07 15:54 W 20 G 35 16.09 Fair CLR 23.3 -3.3 17% 75.69 1008.7
07 14:54 NW 20 G 41 16.09 Fair CLR 23.3 -1.7 19% 75.72 1009.1
07 13:54 W 20 16.09 Fair CLR 22.2 0 23% 75.72 1009.1
07 12:54 W 26 16.09 Fair CLR 21.7 2.2 21.7 7.8 28% 75.74 1009.4
07 11:54 SW 35 G 48 16.09 Fair and Breezy CLR 20.6 1.1 27% 75.82 1010.3
07 10:54 SW 28 G 39 16.09 Fair CLR 18.3 1.7 33% 75.84 1010.6
07 09:54 SW 26 G 39 16.09 Fair CLR 15.6 2.8 42% 75.9 1011.8
07 08:54 SW 22 16.09 Fair CLR 12.2 3.3 55% 75.97 1012.7
07 07:54 SW 20 16.09 Fair CLR 9.4 3.9 69% 7 76 1013.3
07 06:54 SW 15 16.09 Fair CLR 7.8 3.3 10 7.2 73% 6 76.02 1013.4
07 05:54 SW 17 16.09 Fair CLR 7.2 3.9 80% 5 76.02 1013.6
07 04:54 SW 19 16.09 Fair CLR 7.8 3.3 73% 5 76.05 1013.6
07 03:54 SW 19 16.09 Fair CLR 8.3 3.3 71% 6 76.07 1014.0
07 02:54 SW 19 16.09 Fair CLR 8.9 3.3 68% 6 76.12 1014.8
07 01:54 SW 19 16.09 Fair CLR 9.4 2.8 64% 7 76.17 1015.4
07 00:54 SW 17 16.09 Fair CLR 10 0.6 16.1 9.4 52% 8 76.2 1015.9
06 23:54 SW 15 16.09 Fair CLR 10.6 -0.6 46% 76.2 1016.0
06 22:54 SW 13 16.09 Partly Cloudy SCT100 11.1 -3.3 37% 76.23 1016.3
06 21:54 Calm 16.09 Partly Cloudy SCT100 10 -2.8 41% 76.25 1016.7
06 20:54 Calm 16.09 A Few Clouds FEW100 13.9 -5 27% 76.23 1016.1
06 19:54 W 9 16.09 Fair CLR 15 -5.6 24% 76.2 1016.1
06 18:54 NW 20 16.09 A Few Clouds FEW095 15.6 -5.6 17.2 13.9 23% 76.23 1016.5
06 17:54 W 22 16.09 Mostly Cloudy BKN095 16.1 -6.1 21% 76.25 1016.8
06 16:54 W 15 16.09 Mostly Cloudy BKN095 17.2 -5.6 21% 76.28 1017.0
06 15:54 W 20 G 31 16.09 Mostly Cloudy BKN090 16.7 -6.1 21% 76.33 1017.8
06 14:54 NW 19 G 37 16.09 Overcast OVC090 15 -6.1 23% 76.4 1018.5
06 13:54 Vrbl 9 G 31 16.09 Mostly Cloudy BKN090 15.6 -5 24% 76.43 1018.9
06 12:54 Vrbl 11 16.09 Mostly Cloudy BKN085 13.9 -6.7 14.4 3.9 24% 76.45 1019.5
06 11:54 NW 9 16.09 Partly Cloudy SCT075 SCT095 13.3 -5.6 27% 76.53 1020.2
06 10:54 NW 13 16.09 A Few Clouds FEW095 12.2 -6.1 28% 76.53 1020.3
06 09:54 Calm 16.09 Fair CLR 10 -4.4 36% 76.53 1020.3
06 08:54 Calm 16.09 Fair CLR 8.9 -4.4 39% 76.5 1020.2
06 07:54 N 9 16.09 Fair CLR 6.7 -2.2 53% 5 76.48 1019.8
06 06:54 N 7 16.09 Mostly Cloudy BKN090 4.4 -2.2 8.3 2.8 63% 3 76.4 1018.9
06 05:54 N 9 16.09 Partly Cloudy SCT085 3.3 -3.3 62% 1 76.35 1018.4
06 04:54 NW 6 16.09 Overcast OVC085 6.7 -3.9 47% 76.35 1018.1
06 03:54 N 9 16.09 Partly Cloudy SCT085 5.6 -3.9 51% 4 76.3 1017.5
06 02:54 N 9 16.09 Fair CLR 7.2 -3.3 48% 6 76.28 1016.9
06 01:54 N 11 16.09 Fair CLR 7.2 -3.3 48% 5 76.25 1016.8
06 00:54 N 9 16.09 Fair CLR 8.3 -3.3 13.3 8.3 44% 7 76.25 1016.6
05 23:54 N 9 16.09 Mostly Cloudy BKN120 8.9 -3.9 41% 8 76.23 1016.2
05 22:54 N 9 16.09 Partly Cloudy SCT120 9.4 -3.3 41% 8 76.2 1015.8
05 21:54 N 11 16.09 Mostly Cloudy BKN120 10.6 -3.9 36% 76.15 1015.2
05 20:54 N 15 16.09 A Few Clouds FEW120 10.6 -3.9 36% 76.07 1014.1
05 19:54 N 22 16.09 Mostly Cloudy BKN120 12.2 -5 30% 76.02 1013.5
05 18:54 N 26 16.09 Mostly Cloudy FEW080 BKN120 13.3 -4.4 16.1 13.3 29% 75.97 1012.9
05 17:54 N 22 16.09 Overcast FEW080 OVC120 13.9 -3.3 30% 75.95 1012.4
05 16:54 NW 11 16.09 Partly Cloudy FEW080 SCT120 13.9 -3.3 30% 75.97 1012.8
05 15:54 NW 20 16.09 Partly Cloudy FEW070 SCT120 14.4 -2.8 31% 76 1013.1
05 14:54 NW 17 16.09 Fair CLR 15 -1.7 32% 76.02 1013.5
05 13:54 NW 20 G 31 16.09 Fair CLR 14.4 -1.1 35% 76.05 1013.7
05 12:54 N 17 12.87 Partly Cloudy SCT080 13.9 -1.1 13.9 8.9 36% 76.1 1014.3
05 11:54 N 17 G 30 16.09 Overcast FEW070 OVC110 12.8 -2.2 36% 76.12 1014.7
05 10:54 N 9 16.09 Overcast FEW090 OVC110 11.7 -0.6 43% 76.07 1014.2
05 09:54 N 11 16.09 Overcast OVC110 10.6 -0.6 46% 76.07 1014.1
05 08:54 N 11 16.09 Overcast OVC110 10 0.6 52% 9 76.02 1013.5
05 07:54 N 7 16.09 Overcast OVC110 9.4 2.2 61% 9 76 1012.8
05 06:54 N 11 16.09 Overcast OVC120 8.9 2.8 11.1 8.3 66% 7 75.87 1011.3
05 05:54 N 9 16.09 Overcast OVC110 8.3 3.9 74% 7 75.82 1010.5
05 04:54 NE 6 16.09 Overcast OVC100 9.4 3.3 66% 75.84 1010.8
05 03:54 W 6 16.09 Overcast OVC100 10.6 2.2 56% 75.82 1010.0
05 02:54 Calm 16.09 Overcast OVC085 10.6 1.7 54% 75.79 1009.6
05 01:54 N 7 16.09 Overcast OVC100 10.6 1.1 52% 75.79 1009.6
05 00:54 N 17 16.09 Overcast BKN100 OVC120 11.1 1.1 21.1 10.6 50% 75.77 1009.3
04 23:54 N 22 16.09 Overcast FEW080 OVC100 12.2 0.6 45% 75.74 1008.9
04 22:54 N 33 G 46 16.09 Mostly Cloudy and Breezy BKN110 13.3 -1.1 37% 75.74 1009.0
04 21:54 N 37 G 50 16.09 Fair and Breezy CLR 13.9 -1.1 36% 75.64 1007.9
04 20:54 N 44 G 57 16.09 Fair and Windy CLR 15 -0.6 35% 75.49 1006.1
04 19:54 N 44 G 61 16.09 Fair and Windy CLR 18.9 0 28% 75.41 1004.8
04 18:54 N 35 G 50 16.09 Fair and Breezy CLR 21.1 1.1 28.9 21.1 27% 75.36 1004.3
04 17:54 N 31 G 46 16.09 Fair CLR 23.3 1.7 24% 75.34 1003.9
04 16:54 N 30 G 43 16.09 Fair CLR 23.9 2.2 24% 25 75.26 1002.7
Date Time (cdt) Wind (kph) Vis. (km) Weather Sky Cond. Air Dwpt Max. Min. Relative Humidity Wind Chill (°C) Heat Index (°C) altimeter (cm) sea level (mb) 1 hr 3 hr 6 hr
6 hour
Temperature (ºC) Pressure Precipitation (cm)